Darlington, New Jersey
Current Conditions -  °F | °C
As of 12:51 AM on Friday 31 Oct 2014 (Local Time) from KTEB Reporting Station
Clear Clear  
Wind Chill: 45°   Ceiling: Unl
Heat Index: 45°   Visibility: 10mi
Dew Point: 34°   Wind: 3mph
Humidity: 65%   Direction: 350°N
Pressure: 30.02"   Gusts: NA
Location:  41.0594°N, 74.1457°W
Report Text: KTEB 310451Z 35003KT 10SM CLR 07/01 A3002 RMK AO2 SLP165 T00720011 401560050
Loading
Personal Weather Stations






























Interactive Weather Map New forecast layout! Learn more

10-Day Weather Forecast

Advertisements
Track Severe Weather on mobile